Time;durP1;ratioP1;P1;durP2;ratioP2;P2;SDS_P1;SDS_P2;PMS_P1;PMS_P2;Temp;Humidity;BMP_temperature;BMP_pressure;BME280_temperature;BME280_humidity;BME280_pressure;Samples;Min_cycle;Max_cycle;Signal;HPM_P1;HPM_P2
2023/04/01 00:00:53;;;;;;;0.35;0.35;;;6.80;99.90;;;;;;6127492;23;20487;-72
2023/04/01 00:03:21;;;;;;;0.30;0.30;;;6.70;99.90;;;;;;6127330;23;20176;-73
2023/04/01 00:05:47;;;;;;;0.40;0.40;;;6.80;99.90;;;;;;6127029;23;20154;-74
2023/04/01 00:08:12;;;;;;;0.30;0.30;;;6.70;99.90;;;;;;6101289;23;20150;-71
2023/04/01 00:10:38;;;;;;;0.30;0.30;;;6.70;99.90;;;;;;6127220;23;20142;-72
2023/04/01 00:13:04;;;;;;;0.40;0.40;;;6.70;99.90;;;;;;6127464;23;20173;-74
2023/04/01 00:15:29;;;;;;;0.30;0.30;;;6.60;99.90;;;;;;6127016;23;20158;-74
2023/04/01 00:17:55;;;;;;;0.40;0.40;;;6.50;99.90;;;;;;6127138;23;20145;-71
2023/04/01 00:20:21;;;;;;;0.40;0.40;;;6.50;99.90;;;;;;6127073;23;20209;-73
2023/04/01 00:22:47;;;;;;;0.30;0.30;;;6.50;99.90;;;;;;6127138;23;20177;-73
2023/04/01 00:25:13;;;;;;;0.30;0.30;;;6.60;99.90;;;;;;6127296;23;20149;-73
2023/04/01 00:27:39;;;;;;;0.30;0.30;;;6.60;99.90;;;;;;6127223;23;20153;-72
2023/04/01 00:30:05;;;;;;;0.30;0.30;;;6.60;99.90;;;;;;6100887;23;20508;-73
2023/04/01 00:32:31;;;;;;;0.40;0.40;;;6.50;99.90;;;;;;6126861;23;20651;-75
2023/04/01 00:34:58;;;;;;;0.60;0.60;;;6.60;99.90;;;;;;6127881;23;20154;-73
2023/04/01 00:37:24;;;;;;;0.32;0.32;;;6.60;99.90;;;;;;6126731;23;20154;-71
2023/04/01 00:39:50;;;;;;;0.40;0.40;;;6.60;99.90;;;;;;6126896;23;20251;-72
2023/04/01 00:42:16;;;;;;;0.40;0.40;;;6.80;99.90;;;;;;6126661;23;20466;-72
2023/04/01 00:44:42;;;;;;;0.40;0.40;;;6.80;99.90;;;;;;6126931;23;20151;-71
2023/04/01 00:47:08;;;;;;;0.90;0.90;;;7.00;99.90;;;;;;6126764;23;20155;-71
2023/04/01 00:49:38;;;;;;;0.30;0.30;;;7.00;99.90;;;;;;6126889;23;20268;-72
2023/04/01 00:52:07;;;;;;;0.95;0.68;;;6.90;99.90;;;;;;6127396;23;20211;-73
2023/04/01 00:54:34;;;;;;;0.40;0.40;;;7.00;99.90;;;;;;6126972;23;20594;-71
2023/04/01 00:57:04;;;;;;;0.30;0.30;;;7.20;99.90;;;;;;6126643;23;20488;-73
2023/04/01 00:59:33;;;;;;;0.30;0.30;;;7.30;99.90;;;;;;6126695;23;20252;-72
2023/04/01 01:02:01;;;;;;;0.30;0.30;;;7.40;99.90;;;;;;6126718;23;20178;-71
2023/04/01 01:04:30;;;;;;;0.40;0.40;;;7.30;99.90;;;;;;6126656;23;20222;-73
2023/04/01 01:07:14;;;;;;;0.30;0.30;;;7.30;99.90;;;;;;6126528;23;20157;-73
2023/04/01 01:09:58;;;;;;;0.38;0.38;;;7.30;99.90;;;;;;6126929;23;20153;-72
2023/04/01 01:12:44;;;;;;;0.38;0.38;;;7.40;99.90;;;;;;6126646;23;20169;-73
2023/04/01 01:15:30;;;;;;;0.70;0.70;;;7.30;99.90;;;;;;6126688;23;20170;-73
2023/04/01 01:18:09;;;;;;;0.30;0.30;;;7.20;99.90;;;;;;6126824;23;20158;-74
2023/04/01 01:20:56;;;;;;;0.30;0.30;;;7.10;99.90;;;;;;6100728;23;20193;-74
2023/04/01 01:23:59;;;;;;;1.95;0.95;;;7.00;99.90;;;;;;6126648;23;20139;-72
2023/04/01 01:26:31;;;;;;;0.68;0.68;;;7.00;99.90;;;;;;6100467;23;20148;-73
2023/04/01 01:28:56;;;;;;;0.38;0.38;;;7.00;99.90;;;;;;6126581;23;20606;-74
2023/04/01 01:31:30;;;;;;;0.40;0.40;;;7.00;99.90;;;;;;6126510;23;20170;-71
2023/04/01 01:34:24;;;;;;;0.40;0.40;;;6.80;99.90;;;;;;6126609;23;20148;-71
2023/04/01 01:36:56;;;;;;;0.30;0.30;;;6.80;99.90;;;;;;6126364;23;20131;-74
2023/04/01 01:39:29;;;;;;;0.70;0.70;;;6.90;99.90;;;;;;6126472;23;20171;-71
2023/04/01 01:41:57;;;;;;;0.30;0.30;;;6.90;99.90;;;;;;6100143;23;20252;-74
2023/04/01 01:44:23;;;;;;;0.40;0.40;;;6.80;99.90;;;;;;6126494;23;20484;-72
2023/04/01 01:46:50;;;;;;;1.58;0.63;;;6.80;99.90;;;;;;6126288;23;20155;-72
2023/04/01 01:49:18;;;;;;;1.70;1.15;;;6.90;99.90;;;;;;6126482;23;20229;-72
2023/04/01 01:51:44;;;;;;;0.30;0.30;;;6.90;99.90;;;;;;6126398;23;20185;-72
2023/04/01 01:54:17;;;;;;;0.37;0.37;;;7.00;99.90;;;;;;6126488;23;20548;-72
2023/04/01 01:56:47;;;;;;;0.30;0.30;;;7.00;99.90;;;;;;6126231;23;20154;-74
2023/04/01 01:59:14;;;;;;;0.40;0.40;;;6.90;99.90;;;;;;6126333;23;20178;-74
2023/04/01 02:01:45;;;;;;;0.75;0.73;;;6.80;99.90;;;;;;6126348;23;20166;-72
2023/04/01 02:04:12;;;;;;;0.40;0.40;;;6.50;99.90;;;;;;6126417;23;20475;-72
2023/04/01 02:06:42;;;;;;;0.32;0.32;;;6.60;99.90;;;;;;6126168;23;20165;-72
2023/04/01 02:09:10;;;;;;;0.40;0.40;;;6.70;99.90;;;;;;6126716;23;20577;-72
2023/04/01 02:11:47;;;;;;;0.40;0.40;;;6.70;99.90;;;;;;6126483;23;20170;-74
2023/04/01 02:14:39;;;;;;;0.30;0.30;;;6.80;99.90;;;;;;6126554;23;20476;-71
2023/04/01 02:17:09;;;;;;;0.40;0.40;;;6.70;99.90;;;;;;6126126;23;20142;-71
2023/04/01 02:19:59;;;;;;;0.30;0.30;;;6.70;99.90;;;;;;6126847;23;20509;-71
2023/04/01 02:22:28;;;;;;;0.43;0.43;;;6.80;99.90;;;;;;6126613;23;20172;-71
2023/04/01 02:24:57;;;;;;;2.35;0.90;;;6.90;99.90;;;;;;6100353;23;20606;-71
2023/04/01 02:27:24;;;;;;;0.40;0.40;;;6.90;99.90;;;;;;6126016;23;20493;-72
2023/04/01 02:29:50;;;;;;;0.40;0.40;;;6.90;99.90;;;;;;6126302;23;20159;-73
2023/04/01 02:32:17;;;;;;;0.40;0.40;;;6.90;99.90;;;;;;6126213;23;20197;-71
2023/04/01 02:34:43;;;;;;;0.40;0.40;;;6.80;99.90;;;;;;6126382;23;20151;-72
2023/04/01 02:37:11;;;;;;;1.70;0.77;;;6.70;99.90;;;;;;6126020;23;20149;-74
2023/04/01 02:39:37;;;;;;;0.30;0.30;;;6.60;99.90;;;;;;6126141;23;20609;-73
2023/04/01 02:42:03;;;;;;;0.30;0.30;;;6.60;99.90;;;;;;6125960;23;20193;-74
2023/04/01 02:44:28;;;;;;;0.60;0.60;;;6.70;99.90;;;;;;6126226;23;20151;-72
2023/04/01 02:46:54;;;;;;;0.40;0.40;;;6.80;99.90;;;;;;6125979;23;20864;-73
2023/04/01 02:49:19;;;;;;;0.30;0.30;;;6.80;99.90;;;;;;6126216;23;20150;-73
2023/04/01 02:51:45;;;;;;;0.40;0.40;;;6.70;99.90;;;;;;6126720;23;20671;-73
2023/04/01 02:54:11;;;;;;;0.30;0.30;;;6.60;99.90;;;;;;6128030;23;20149;-73
2023/04/01 02:56:36;;;;;;;0.30;0.30;;;6.50;99.90;;;;;;6127730;23;20148;-73
2023/04/01 02:59:02;;;;;;;0.40;0.40;;;6.50;99.90;;;;;;6127760;23;20289;-70
2023/04/01 03:01:28;;;;;;;0.40;0.40;;;6.60;99.90;;;;;;6127822;23;20196;-74
2023/04/01 03:03:53;;;;;;;0.30;0.30;;;6.60;99.90;;;;;;6127892;23;20220;-74
2023/04/01 03:06:19;;;;;;;0.50;0.50;;;6.60;99.90;;;;;;6127635;23;20457;-74
2023/04/01 03:08:46;;;;;;;0.40;0.40;;;6.40;99.90;;;;;;6127955;23;20581;-74
2023/04/01 03:11:12;;;;;;;0.40;0.40;;;6.40;99.90;;;;;;6127724;23;20172;-73
2023/04/01 03:13:37;;;;;;;0.40;0.40;;;6.40;99.90;;;;;;6127826;23;20653;-72
2023/04/01 03:16:03;;;;;;;0.37;0.37;;;6.60;99.90;;;;;;6101627;23;20397;-74
2023/04/01 03:18:29;;;;;;;0.40;0.40;;;6.60;99.90;;;;;;6127652;23;20489;-72
2023/04/01 03:20:55;;;;;;;0.40;0.40;;;6.70;99.90;;;;;;6127674;23;20402;-73
2023/04/01 03:23:20;;;;;;;0.47;0.47;;;6.60;99.90;;;;;;6128045;23;20378;-74
2023/04/01 03:25:47;;;;;;;1.37;1.27;;;6.60;99.90;;;;;;6127480;23;20153;-74
2023/04/01 03:28:13;;;;;;;0.32;0.32;;;6.90;99.90;;;;;;6127678;23;20425;-73
2023/04/01 03:30:39;;;;;;;0.30;0.30;;;7.00;99.90;;;;;;6127633;23;20225;-73
2023/04/01 03:33:06;;;;;;;0.40;0.40;;;7.00;99.90;;;;;;6127501;23;20170;-74
2023/04/01 03:35:32;;;;;;;6.82;0.60;;;7.00;99.90;;;;;;6127514;23;20460;-74
2023/04/01 03:37:57;;;;;;;0.38;0.38;;;7.10;99.90;;;;;;6127592;23;20223;-73
2023/04/01 03:40:23;;;;;;;0.30;0.30;;;7.00;99.90;;;;;;6127425;23;20220;-74
2023/04/01 03:42:50;;;;;;;0.30;0.30;;;6.80;99.90;;;;;;6127285;23;20420;-72
2023/04/01 03:45:16;;;;;;;0.30;0.30;;;6.90;99.90;;;;;;6127510;23;20582;-74
2023/04/01 03:47:41;;;;;;;1.13;0.50;;;6.90;99.90;;;;;;6127290;23;20154;-72
2023/04/01 03:50:08;;;;;;;0.30;0.30;;;6.90;99.90;;;;;;6127412;23;20437;-73
2023/04/01 03:52:34;;;;;;;0.30;0.30;;;7.00;99.90;;;;;;6127268;23;20253;-74
2023/04/01 03:55:01;;;;;;;0.40;0.40;;;6.80;99.90;;;;;;6101439;23;20214;-73
2023/04/01 03:57:26;;;;;;;0.32;0.32;;;6.80;99.90;;;;;;6127199;23;20157;-72
2023/04/01 03:59:52;;;;;;;0.30;0.30;;;6.90;99.90;;;;;;6127276;23;20206;-71
2023/04/01 04:02:18;;;;;;;0.30;0.30;;;6.90;99.90;;;;;;6127298;23;20167;-73
2023/04/01 04:04:43;;;;;;;0.40;0.40;;;6.80;99.90;;;;;;6101047;23;20144;-73
2023/04/01 04:07:09;;;;;;;0.30;0.30;;;6.80;99.90;;;;;;6101125;23;20527;-71
2023/04/01 04:09:35;;;;;;;0.60;0.60;;;6.90;99.90;;;;;;6127224;23;20155;-74
2023/04/01 04:12:01;;;;;;;0.40;0.40;;;6.70;99.90;;;;;;6101191;23;20265;-73
2023/04/01 04:14:26;;;;;;;0.40;0.40;;;6.70;99.90;;;;;;6127241;23;20564;-72
2023/04/01 04:16:52;;;;;;;0.40;0.40;;;6.50;99.90;;;;;;6126965;23;20410;-71
2023/04/01 04:19:18;;;;;;;0.40;0.40;;;6.40;99.90;;;;;;6126578;23;20185;-73
2023/04/01 04:21:43;;;;;;;0.30;0.30;;;6.50;99.90;;;;;;6127058;23;20244;-73
2023/04/01 04:24:09;;;;;;;0.30;0.30;;;6.70;99.90;;;;;;6127112;23;20147;-71
2023/04/01 04:26:36;;;;;;;0.38;0.38;;;6.70;99.90;;;;;;6127104;23;20585;-74
2023/04/01 04:29:01;;;;;;;1.30;0.60;;;6.80;99.90;;;;;;6127073;23;20228;-72
2023/04/01 04:31:27;;;;;;;0.50;0.50;;;6.70;99.90;;;;;;6127277;23;20632;-73
2023/04/01 04:33:53;;;;;;;0.93;0.75;;;6.70;99.90;;;;;;6101085;23;20165;-73
2023/04/01 04:36:21;;;;;;;0.30;0.30;;;6.70;99.90;;;;;;6126851;23;20174;-72
2023/04/01 04:38:47;;;;;;;0.30;0.30;;;6.60;99.90;;;;;;6100849;23;20564;-73
2023/04/01 04:41:14;;;;;;;0.35;0.35;;;6.60;99.90;;;;;;6126699;23;20182;-71
2023/04/01 04:43:41;;;;;;;0.40;0.40;;;6.50;99.90;;;;;;6127057;23;20166;-74
2023/04/01 04:46:08;;;;;;;1.25;1.20;;;6.40;99.90;;;;;;6126661;23;20150;-74
2023/04/01 04:48:34;;;;;;;0.30;0.30;;;6.40;99.90;;;;;;6127222;23;20158;-71
2023/04/01 04:51:00;;;;;;;0.40;0.40;;;6.40;99.90;;;;;;6126857;23;20158;-74
2023/04/01 04:53:26;;;;;;;0.30;0.30;;;6.40;99.90;;;;;;6126827;23;20896;-71
2023/04/01 04:55:52;;;;;;;0.40;0.40;;;6.50;99.90;;;;;;6126603;23;20378;-72
2023/04/01 04:58:18;;;;;;;0.30;0.30;;;6.60;99.90;;;;;;6126696;23;20159;-74
2023/04/01 05:00:45;;;;;;;0.30;0.30;;;6.70;99.90;;;;;;6126743;23;20456;-73
2023/04/01 05:03:11;;;;;;;0.30;0.30;;;6.70;99.90;;;;;;6101161;23;20225;-74
2023/04/01 05:05:37;;;;;;;0.30;0.30;;;6.60;99.90;;;;;;6126611;23;20232;-70
2023/04/01 05:08:03;;;;;;;0.30;0.30;;;6.60;99.90;;;;;;6126687;23;20182;-72
2023/04/01 05:10:30;;;;;;;0.40;0.40;;;6.50;99.90;;;;;;6126682;23;20375;-71
2023/04/01 05:12:56;;;;;;;0.40;0.40;;;6.60;99.90;;;;;;6126718;23;20183;-72
2023/04/01 05:15:21;;;;;;;0.30;0.30;;;6.50;99.90;;;;;;6126361;23;20159;-71
2023/04/01 05:17:47;;;;;;;0.37;0.37;;;6.50;99.90;;;;;;6126695;23;20481;-71
2023/04/01 05:20:14;;;;;;;1.07;1.07;;;6.50;99.90;;;;;;6126531;23;20417;-73
2023/04/01 05:22:40;;;;;;;0.40;0.40;;;6.40;99.90;;;;;;6126537;23;20620;-74
2023/04/01 05:25:06;;;;;;;0.40;0.40;;;6.60;99.90;;;;;;6126597;23;20203;-73
2023/04/01 05:27:32;;;;;;;0.32;0.32;;;6.80;99.90;;;;;;6100398;23;20277;-71
2023/04/01 05:29:58;;;;;;;0.40;0.40;;;6.70;99.90;;;;;;6126690;23;20571;-73
2023/04/01 05:32:24;;;;;;;0.30;0.30;;;6.70;99.90;;;;;;6126553;23;20215;-74
2023/04/01 05:34:53;;;;;;;0.30;0.30;;;6.70;99.90;;;;;;6126521;23;20154;-72
2023/04/01 05:37:19;;;;;;;0.30;0.30;;;6.70;99.90;;;;;;6126325;23;20378;-73
2023/04/01 05:39:45;;;;;;;0.40;0.40;;;6.50;99.90;;;;;;6126362;23;20185;-71
2023/04/01 05:42:11;;;;;;;0.30;0.30;;;6.60;99.90;;;;;;6126235;23;20211;-73
2023/04/01 05:44:37;;;;;;;0.30;0.30;;;6.60;99.90;;;;;;6126560;23;20888;-73
2023/04/01 05:47:03;;;;;;;0.40;0.40;;;6.60;99.90;;;;;;6126311;23;20149;-73
2023/04/01 05:49:29;;;;;;;0.40;0.40;;;6.50;99.90;;;;;;6126420;23;20198;-71
2023/04/01 05:51:55;;;;;;;0.30;0.30;;;6.60;99.90;;;;;;6126370;23;20174;-73
2023/04/01 05:54:21;;;;;;;0.40;0.40;;;6.70;99.90;;;;;;6126578;23;20385;-74
2023/04/01 05:56:46;;;;;;;0.40;0.40;;;6.70;99.90;;;;;;6125873;23;20158;-72
2023/04/01 05:59:12;;;;;;;0.40;0.40;;;6.80;99.90;;;;;;6126541;23;20671;-77
2023/04/01 06:01:39;;;;;;;1.73;0.90;;;6.90;99.90;;;;;;6126306;23;20170;-76
2023/04/01 06:04:04;;;;;;;0.50;0.50;;;6.80;99.90;;;;;;6126278;23;20202;-79
2023/04/01 06:06:31;;;;;;;0.30;0.30;;;6.70;99.90;;;;;;6126329;23;20159;-76
2023/04/01 06:09:12;;;;;;;0.40;0.40;;;6.70;99.90;;;;;;6126745;23;20521;-71
2023/04/01 06:12:10;;;;;;;3.42;1.30;;;7.00;99.90;;;;;;6126899;23;20201;-73
2023/04/01 06:14:48;;;;;;;0.30;0.30;;;8.00;99.90;;;;;;6127513;23;20140;-70
2023/04/01 06:17:27;;;;;;;0.60;0.60;;;9.10;99.90;;;;;;6126280;23;20164;-73
2023/04/01 06:20:12;;;;;;;0.30;0.30;;;9.90;99.90;;;;;;6127258;23;20170;-72
2023/04/01 06:23:01;;;;;;;0.30;0.30;;;10.60;99.50;;;;;;6127313;23;20164;-74
2023/04/01 06:25:54;;;;;;;0.40;0.40;;;11.10;97.50;;;;;;6126562;23;20137;-73
2023/04/01 06:28:47;;;;;;;0.63;0.63;;;11.40;96.30;;;;;;6129095;23;20191;-74
2023/04/01 06:31:21;;;;;;;0.30;0.30;;;11.60;94.80;;;;;;6102256;23;20482;-72
2023/04/01 06:34:06;;;;;;;0.30;0.30;;;10.80;94.20;;;;;;6128726;23;20136;-72
2023/04/01 06:36:51;;;;;;;0.40;0.40;;;10.00;95.20;;;;;;6127730;23;20192;-73
2023/04/01 06:39:40;;;;;;;0.30;0.30;;;9.10;97.50;;;;;;6128844;23;20176;-72
2023/04/01 06:42:25;;;;;;;0.43;0.43;;;8.50;98.60;;;;;;6128095;23;20184;-72
2023/04/01 06:45:27;;;;;;;0.60;0.60;;;8.10;99.90;;;;;;6128606;23;20143;-72
2023/04/01 06:48:41;;;;;;;0.88;0.55;;;7.60;99.90;;;;;;6128678;23;20482;-72
2023/04/01 06:51:11;;;;;;;0.30;0.30;;;7.40;99.90;;;;;;5982708;23;20179;-70
2023/04/01 06:53:43;;;;;;;0.60;0.50;;;7.30;99.90;;;;;;5983055;24;20514;-72
2023/04/01 06:56:12;;;;;;;0.30;0.30;;;7.20;99.90;;;;;;6070590;23;20584;-71
2023/04/01 06:58:41;;;;;;;0.40;0.40;;;7.20;99.90;;;;;;6131744;23;20672;-73
2023/04/01 07:01:12;;;;;;;0.40;0.40;;;7.10;99.90;;;;;;6106390;23;20279;-73
2023/04/01 07:04:15;;;;;;;1.25;0.60;;;6.90;99.90;;;;;;6132858;23;20140;-72
2023/04/01 07:07:01;;;;;;;0.30;0.30;;;6.80;99.90;;;;;;6131370;23;20164;-73
2023/04/01 07:09:32;;;;;;;0.30;0.30;;;6.80;99.90;;;;;;6132506;23;20143;-71
2023/04/01 07:12:06;;;;;;;0.30;0.30;;;6.90;99.90;;;;;;6128438;23;20174;-72
2023/04/01 07:14:37;;;;;;;0.30;0.30;;;6.80;99.90;;;;;;6128550;23;20142;-73
2023/04/01 07:17:27;;;;;;;0.30;0.30;;;6.60;99.90;;;;;;6127781;23;20583;-73
2023/04/01 07:20:23;;;;;;;0.30;0.30;;;6.70;99.90;;;;;;6128083;23;20168;-72
2023/04/01 07:22:52;;;;;;;0.30;0.30;;;6.60;99.90;;;;;;6102508;23;20178;-71
2023/04/01 07:25:22;;;;;;;0.40;0.40;;;6.50;99.90;;;;;;6128553;23;20154;-72
2023/04/01 07:27:48;;;;;;;0.35;0.35;;;6.50;99.90;;;;;;6127908;23;20219;-74
2023/04/01 07:30:18;;;;;;;0.35;0.35;;;6.50;99.90;;;;;;6129353;23;20154;-72
2023/04/01 07:33:23;;;;;;;0.30;0.30;;;6.60;99.90;;;;;;6107525;23;20185;-73
2023/04/01 07:36:04;;;;;;;0.30;0.30;;;6.70;99.90;;;;;;6132289;23;20164;-73
2023/04/01 07:39:19;;;;;;;0.40;0.40;;;6.70;99.90;;;;;;6107462;23;20160;-73
2023/04/01 07:42:15;;;;;;;0.73;0.60;;;6.40;99.90;;;;;;6068340;23;20190;-72
2023/04/01 07:45:01;;;;;;;0.38;0.38;;;6.50;99.90;;;;;;6102280;23;20161;-73
2023/04/01 07:47:30;;;;;;;0.40;0.40;;;6.50;99.90;;;;;;6101810;23;20179;-73
2023/04/01 07:50:15;;;;;;;0.30;0.30;;;6.70;99.90;;;;;;6132101;23;20224;-76
2023/04/01 07:52:52;;;;;;;0.30;0.30;;;6.90;99.90;;;;;;6133875;23;20169;-75
2023/04/01 07:55:45;;;;;;;0.50;0.50;;;7.20;99.90;;;;;;6134887;23;20220;-75
2023/04/01 07:58:37;;;;;;;0.30;0.30;;;7.40;99.90;;;;;;6133498;23;20135;-75
2023/04/01 08:01:14;;;;;;;0.30;0.30;;;7.20;99.90;;;;;;6134935;23;20512;-77
2023/04/01 08:03:48;;;;;;;0.30;0.30;;;7.20;99.90;;;;;;6134949;23;20550;-75
2023/04/01 08:06:25;;;;;;;0.40;0.40;;;7.30;99.90;;;;;;6134801;23;20138;-75
2023/04/01 08:09:18;;;;;;;0.40;0.40;;;7.50;99.90;;;;;;6132143;23;20139;-73
2023/04/01 08:11:49;;;;;;;0.40;0.40;;;7.60;99.90;;;;;;6127593;23;20170;-75
2023/04/01 08:14:56;;;;;;;0.40;0.40;;;7.60;99.90;;;;;;6127630;23;20154;-74
2023/04/01 08:17:35;;;;;;;2.05;1.95;;;7.50;99.90;;;;;;6095768;23;20496;-71
2023/04/01 08:20:45;;;;;;;0.30;0.30;;;7.50;99.90;;;;;;6132321;23;20170;-73
2023/04/01 08:23:13;;;;;;;0.30;0.30;;;7.40;99.90;;;;;;6096426;23;20197;-74
2023/04/01 08:26:02;;;;;;;0.40;0.40;;;7.10;99.90;;;;;;6126836;23;20147;-76
2023/04/01 08:28:35;;;;;;;0.40;0.40;;;7.20;99.90;;;;;;6108362;23;20154;-74
2023/04/01 08:31:08;;;;;;;0.30;0.30;;;7.30;99.90;;;;;;6126988;23;20219;-73
2023/04/01 08:33:34;;;;;;;0.75;0.75;;;7.20;99.90;;;;;;6127281;23;20158;-75
2023/04/01 08:36:04;;;;;;;0.60;0.60;;;7.10;99.90;;;;;;6127133;23;20202;-78
2023/04/01 08:38:50;;;;;;;0.30;0.30;;;7.10;99.90;;;;;;6127164;23;20576;-72
2023/04/01 08:41:44;;;;;;;0.30;0.30;;;7.20;99.90;;;;;;6126941;23;20194;-73
2023/04/01 08:44:32;;;;;;;0.30;0.30;;;7.20;99.90;;;;;;6100946;23;20155;-71
2023/04/01 08:47:31;;;;;;;0.35;0.35;;;7.20;99.90;;;;;;6126838;23;20173;-73
2023/04/01 08:50:09;;;;;;;0.30;0.30;;;7.00;99.90;;;;;;6127187;23;20151;-72
2023/04/01 08:53:03;;;;;;;0.30;0.30;;;7.10;99.90;;;;;;6100857;23;20181;-71
2023/04/01 08:55:50;;;;;;;0.57;0.57;;;7.10;99.90;;;;;;6065190;23;20166;-72
2023/04/01 08:58:15;;;;;;;0.43;0.43;;;7.20;99.90;;;;;;6127418;23;20139;-72
2023/04/01 09:00:53;;;;;;;0.40;0.40;;;7.30;99.90;;;;;;6130990;23;20237;-72
2023/04/01 09:03:22;;;;;;;0.40;0.40;;;7.40;99.90;;;;;;6132288;23;20162;-71
2023/04/01 09:06:10;;;;;;;0.32;0.32;;;7.40;99.90;;;;;;6131617;23;20136;-72
2023/04/01 09:08:41;;;;;;;0.30;0.30;;;7.50;99.90;;;;;;6131202;23;20228;-73
2023/04/01 09:11:33;;;;;;;0.30;0.30;;;7.50;99.90;;;;;;6132087;23;20175;-72
2023/04/01 09:14:22;;;;;;;0.30;0.30;;;7.40;99.90;;;;;;6131376;23;20168;-72
2023/04/01 09:17:13;;;;;;;0.40;0.40;;;7.30;99.90;;;;;;6133011;23;20219;-74
2023/04/01 09:20:07;;;;;;;0.40;0.40;;;7.30;99.90;;;;;;6126869;23;20168;-73
2023/04/01 09:23:16;;;;;;;0.45;0.43;;;7.30;99.90;;;;;;6126656;23;20164;-72
2023/04/01 09:26:21;;;;;;;0.68;0.68;;;7.40;99.90;;;;;;6126623;23;20183;-73
2023/04/01 09:29:08;;;;;;;0.40;0.40;;;7.50;99.90;;;;;;6100573;23;20625;-71
2023/04/01 09:31:42;;;;;;;0.70;0.70;;;7.60;99.90;;;;;;6125149;23;20175;-73
2023/04/01 09:34:20;;;;;;;0.50;0.50;;;7.50;99.90;;;;;;6099033;23;20607;-73
2023/04/01 09:37:01;;;;;;;2.67;0.60;;;7.50;99.90;;;;;;6100345;23;20223;-72
2023/04/01 09:40:08;;;;;;;3.22;0.50;;;7.50;99.90;;;;;;6099070;23;20186;-73
2023/04/01 09:42:44;;;;;;;0.30;0.30;;;7.70;99.90;;;;;;6126313;23;20525;-73
2023/04/01 09:45:48;;;;;;;0.30;0.30;;;7.60;99.90;;;;;;6127051;23;20518;-74
2023/04/01 09:48:30;;;;;;;0.30;0.30;;;7.80;99.90;;;;;;6100492;23;20175;-74
2023/04/01 09:51:21;;;;;;;0.30;0.30;;;8.00;99.90;;;;;;6100392;23;20169;-73
2023/04/01 09:53:53;;;;;;;0.30;0.30;;;8.00;99.90;;;;;;6126418;23;20155;-72
2023/04/01 09:56:30;;;;;;;0.52;0.52;;;7.90;99.90;;;;;;6126078;23;20223;-76
2023/04/01 09:59:15;;;;;;;0.30;0.30;;;7.80;99.90;;;;;;6126985;23;20533;-73
2023/04/01 10:01:55;;;;;;;0.30;0.30;;;7.80;99.90;;;;;;6127768;23;20166;-75
2023/04/01 10:04:59;;;;;;;0.30;0.30;;;7.70;99.90;;;;;;6128659;23;20224;-75
2023/04/01 10:07:36;;;;;;;0.70;0.60;;;7.80;99.90;;;;;;6129016;23;20240;-76
2023/04/01 10:10:37;;;;;;;0.40;0.40;;;7.80;99.90;;;;;;6129300;23;20143;-74
2023/04/01 10:13:32;;;;;;;0.73;0.70;;;7.70;99.90;;;;;;6128421;23;20171;-74
2023/04/01 10:16:13;;;;;;;0.30;0.30;;;7.70;99.90;;;;;;6130627;23;20139;-73
2023/04/01 10:19:16;;;;;;;1.48;1.23;;;7.80;99.90;;;;;;6128716;23;20163;-72
2023/04/01 10:22:02;;;;;;;0.50;0.50;;;7.70;99.90;;;;;;6102522;23;20649;-72
2023/04/01 10:24:39;;;;;;;0.40;0.40;;;7.90;99.90;;;;;;6102515;23;20151;-72
2023/04/01 10:27:30;;;;;;;2.25;1.65;;;8.10;99.90;;;;;;6128347;23;20151;-71
2023/04/01 10:30:31;;;;;;;0.40;0.40;;;8.20;99.90;;;;;;6128780;23;20472;-72
2023/04/01 10:33:15;;;;;;;8.43;1.50;;;8.20;99.90;;;;;;6128448;23;20617;-73
2023/04/01 10:36:12;;;;;;;0.50;0.40;;;8.10;99.90;;;;;;6102312;23;20199;-72
2023/04/01 10:39:11;;;;;;;1.13;1.13;;;7.70;99.90;;;;;;6129924;23;20137;-75
2023/04/01 10:42:06;;;;;;;0.40;0.40;;;7.80;99.90;;;;;;6134376;23;20207;-71
2023/04/01 10:45:09;;;;;;;0.60;0.60;;;7.90;99.90;;;;;;6113477;23;20163;-71
2023/04/01 10:47:57;;;;;;;0.30;0.30;;;7.80;99.90;;;;;;6135189;23;20182;-72
2023/04/01 10:50:40;;;;;;;0.40;0.40;;;7.80;99.90;;;;;;6135365;23;20183;-73
2023/04/01 10:53:33;;;;;;;1.20;0.82;;;7.70;99.90;;;;;;6109775;23;20175;-72
2023/04/01 10:56:31;;;;;;;0.68;0.68;;;7.50;99.90;;;;;;6134551;23;20204;-72
2023/04/01 10:59:20;;;;;;;0.40;0.40;;;7.60;99.90;;;;;;6080319;23;20184;-77
2023/04/01 11:01:55;;;;;;;0.30;0.30;;;7.90;99.90;;;;;;6128298;23;20178;-74
2023/04/01 11:04:41;;;;;;;0.60;0.60;;;7.90;99.90;;;;;;6128029;23;20144;-76
2023/04/01 11:07:45;;;;;;;0.40;0.40;;;7.90;99.90;;;;;;6128254;23;20140;-74
2023/04/01 11:11:04;;;;;;;0.82;0.82;;;7.70;99.90;;;;;;5976819;23;20165;-72
2023/04/01 11:13:35;;;;;;;0.40;0.40;;;7.80;99.90;;;;;;5982053;24;20170;-75
2023/04/01 11:16:27;;;;;;;0.30;0.30;;;7.70;99.90;;;;;;5981928;24;20576;-78
2023/04/01 11:18:55;;;;;;;0.32;0.32;;;7.70;99.90;;;;;;6095802;23;20662;-73
2023/04/01 11:21:21;;;;;;;0.38;0.38;;;7.80;99.90;;;;;;6127569;23;20171;-74
2023/04/01 11:24:04;;;;;;;0.50;0.40;;;7.80;99.90;;;;;;6101828;23;20162;-74
2023/04/01 11:26:33;;;;;;;0.30;0.30;;;7.90;99.90;;;;;;6127601;23;20194;-77
2023/04/01 11:29:15;;;;;;;0.40;0.40;;;7.90;99.90;;;;;;6128505;23;20478;-73
2023/04/01 11:32:01;;;;;;;0.40;0.40;;;7.90;99.90;;;;;;6126815;23;20175;-73
2023/04/01 11:34:44;;;;;;;0.38;0.38;;;7.80;99.90;;;;;;6127188;23;20155;-73
2023/04/01 11:37:13;;;;;;;0.40;0.40;;;7.80;99.90;;;;;;6100851;23;20156;-71
2023/04/01 11:39:47;;;;;;;0.32;0.32;;;7.80;99.90;;;;;;6100315;23;20199;-72
2023/04/01 11:42:43;;;;;;;0.40;0.40;;;7.70;99.90;;;;;;6101265;23;20239;-73
2023/04/01 11:45:39;;;;;;;0.43;0.43;;;7.50;99.90;;;;;;6127554;23;20195;-73
2023/04/01 11:48:14;;;;;;;0.50;0.50;;;7.40;99.90;;;;;;6127452;23;20146;-73
2023/04/01 11:51:14;;;;;;;0.40;0.40;;;7.50;99.90;;;;;;6127612;23;20215;-74
2023/04/01 11:54:01;;;;;;;2.95;0.93;;;7.30;99.90;;;;;;6127280;23;20227;-72
2023/04/01 11:56:44;;;;;;;0.93;0.75;;;7.50;99.90;;;;;;6127199;23;20535;-73
2023/04/01 11:59:40;;;;;;;0.40;0.40;;;7.80;99.90;;;;;;6127492;23;20195;-72
2023/04/01 12:02:23;;;;;;;0.40;0.40;;;8.10;99.90;;;;;;6101233;23;20184;-73
2023/04/01 12:05:18;;;;;;;0.30;0.30;;;8.20;99.90;;;;;;6127310;23;20187;-72
2023/04/01 12:08:08;;;;;;;0.30;0.30;;;8.30;99.90;;;;;;5975651;23;20162;-77
2023/04/01 12:32:39;;;;;;;2.00;1.17;;;8.80;99.90;;;;;;6134061;23;20190;-73
2023/04/01 12:35:26;;;;;;;0.40;0.40;;;8.80;99.90;;;;;;6027578;23;20195;-72
2023/04/01 12:38:20;;;;;;;0.38;0.38;;;8.70;99.90;;;;;;6098231;23;20157;-72
2023/04/01 12:40:46;;;;;;;0.30;0.30;;;8.70;99.90;;;;;;6072698;23;20180;-72
2023/04/01 12:44:00;;;;;;;0.30;0.30;;;8.80;99.90;;;;;;6072374;23;20176;-72
2023/04/01 12:47:00;;;;;;;0.30;0.30;;;8.80;99.90;;;;;;6087926;23;20160;-72
2023/04/01 12:49:51;;;;;;;0.40;0.40;;;8.90;99.90;;;;;;6053432;23;20159;-72
2023/04/01 12:53:02;;;;;;;0.70;0.70;;;8.90;99.90;;;;;;6095733;23;20168;-72
2023/04/01 12:55:37;;;;;;;0.38;0.38;;;8.80;99.90;;;;;;6098391;23;20141;-72
2023/04/01 12:58:35;;;;;;;3.65;3.45;;;9.10;99.90;;;;;;6105933;23;20446;-72
2023/04/01 13:01:27;;;;;;;0.40;0.40;;;9.40;99.90;;;;;;6061251;23;20227;-72
2023/04/01 13:04:17;;;;;;;0.30;0.30;;;9.20;99.90;;;;;;6105262;23;20548;-71
2023/04/01 13:07:04;;;;;;;0.30;0.30;;;8.70;99.90;;;;;;6106118;23;20157;-72
2023/04/01 13:09:40;;;;;;;0.40;0.40;;;8.80;99.90;;;;;;6081537;23;20591;-72
2023/04/01 13:12:30;;;;;;;0.43;0.40;;;9.10;99.90;;;;;;6080724;23;20149;-71
2023/04/01 13:15:15;;;;;;;0.30;0.30;;;9.40;99.90;;;;;;6106218;23;20136;-71
2023/04/01 13:17:59;;;;;;;0.30;0.30;;;9.90;99.90;;;;;;6098213;23;20164;-73
2023/04/01 13:20:36;;;;;;;0.30;0.30;;;10.10;99.90;;;;;;6097847;23;20165;-72
2023/04/01 13:23:20;;;;;;;0.30;0.30;;;9.90;99.90;;;;;;6097741;23;20188;-73
2023/04/01 13:26:03;;;;;;;0.30;0.30;;;10.00;99.90;;;;;;6098131;23;20137;-73
2023/04/01 13:29:13;;;;;;;0.30;0.30;;;10.40;99.90;;;;;;6097977;23;20141;-72
2023/04/01 13:31:46;;;;;;;0.40;0.40;;;10.50;99.80;;;;;;6061181;23;20207;-72
2023/04/01 13:34:33;;;;;;;0.50;0.40;;;10.60;99.70;;;;;;6072466;23;20172;-73
2023/04/01 13:37:10;;;;;;;0.30;0.30;;;10.70;99.90;;;;;;6097324;23;20169;-72
2023/04/01 13:40:11;;;;;;;1.02;0.98;;;10.70;99.90;;;;;;6097291;23;20495;-72
2023/04/01 13:42:56;;;;;;;0.40;0.40;;;10.70;99.00;;;;;;6097562;23;20168;-73
2023/04/01 13:45:29;;;;;;;0.40;0.40;;;10.80;99.70;;;;;;6097673;23;20157;-72
2023/04/01 13:48:08;;;;;;;0.50;0.50;;;10.90;99.10;;;;;;6097509;23;20140;-72
2023/04/01 13:50:55;;;;;;;0.30;0.30;;;10.30;98.50;;;;;;6097679;23;20141;-72
2023/04/01 13:53:35;;;;;;;0.50;0.50;;;9.80;99.70;;;;;;6071923;23;20180;-72
2023/04/01 13:56:04;;;;;;;0.30;0.30;;;9.80;99.90;;;;;;6097600;23;20141;-72
2023/04/01 13:58:55;;;;;;;0.30;0.30;;;9.90;99.90;;;;;;6097398;23;20157;-72
2023/04/01 14:01:42;;;;;;;0.30;0.30;;;10.10;99.90;;;;;;6098002;23;20137;-74
2023/04/01 14:04:35;;;;;;;0.77;0.77;;;10.40;99.90;;;;;;6097316;23;20175;-72
2023/04/01 14:07:09;;;;;;;0.40;0.40;;;10.70;99.90;;;;;;6097678;23;20293;-72
2023/04/01 14:09:53;;;;;;;1.05;0.50;;;11.00;99.60;;;;;;6096971;23;20353;-72